sensor_id;sensor_type;location;lat;lon;timestamp;pressure;altitude;pressure_sealevel;temperature;humidity
72024;BME280;59889;50.700;5.440;2023-05-27T00:02:13;101159.85;;;24.82;30.56
72024;BME280;59889;50.700;5.440;2023-05-27T00:04:38;101162.28;;;24.77;30.60
72024;BME280;59889;50.700;5.440;2023-05-27T00:07:03;101163.04;;;24.50;30.67
72024;BME280;59889;50.700;5.440;2023-05-27T00:09:28;101164.68;;;24.54;30.60
72024;BME280;59889;50.700;5.440;2023-05-27T00:11:53;101161.77;;;24.72;30.63
72024;BME280;59889;50.700;5.440;2023-05-27T00:14:18;101161.82;;;24.48;30.68
72024;BME280;59889;50.700;5.440;2023-05-27T00:16:43;101157.79;;;24.58;30.58
72024;BME280;59889;50.700;5.440;2023-05-27T00:19:08;101153.66;;;24.54;30.58
72024;BME280;59889;50.700;5.440;2023-05-27T00:21:33;101153.00;;;24.71;30.71
72024;BME280;59889;50.700;5.440;2023-05-27T00:23:58;101149.49;;;24.41;30.75
72024;BME280;59889;50.700;5.440;2023-05-27T00:26:23;101148.01;;;24.43;30.75
72024;BME280;59889;50.700;5.440;2023-05-27T00:28:48;101151.41;;;24.55;30.61
72024;BME280;59889;50.700;5.440;2023-05-27T00:31:13;101149.94;;;24.74;30.67
72024;BME280;59889;50.700;5.440;2023-05-27T00:33:38;101147.34;;;24.50;30.66
72024;BME280;59889;50.700;5.440;2023-05-27T00:36:03;101144.94;;;24.45;30.70
72024;BME280;59889;50.700;5.440;2023-05-27T00:38:28;101142.36;;;24.49;30.71
72024;BME280;59889;50.700;5.440;2023-05-27T00:40:53;101139.79;;;24.20;30.78
72024;BME280;59889;50.700;5.440;2023-05-27T00:43:18;101141.20;;;24.47;30.73
72024;BME280;59889;50.700;5.440;2023-05-27T00:45:43;101138.98;;;24.72;30.70
72024;BME280;59889;50.700;5.440;2023-05-27T00:48:08;101136.87;;;24.43;30.74
72024;BME280;59889;50.700;5.440;2023-05-27T00:50:33;101138.95;;;24.65;30.75
72024;BME280;59889;50.700;5.440;2023-05-27T00:52:58;101136.77;;;24.70;30.70
72024;BME280;59889;50.700;5.440;2023-05-27T00:55:24;101138.54;;;24.37;30.79
72024;BME280;59889;50.700;5.440;2023-05-27T00:57:49;101138.80;;;24.91;30.79
72024;BME280;59889;50.700;5.440;2023-05-27T01:00:14;101136.07;;;24.46;30.75
72024;BME280;59889;50.700;5.440;2023-05-27T01:02:39;101135.18;;;24.74;30.71
72024;BME280;59889;50.700;5.440;2023-05-27T01:05:05;101133.66;;;24.71;30.74
72024;BME280;59889;50.700;5.440;2023-05-27T01:07:33;101132.42;;;24.40;30.80
72024;BME280;59889;50.700;5.440;2023-05-27T01:10:00;101131.04;;;24.44;30.76
72024;BME280;59889;50.700;5.440;2023-05-27T01:12:26;101131.51;;;24.42;30.80
72024;BME280;59889;50.700;5.440;2023-05-27T01:14:45;101132.10;;;24.46;30.78
72024;BME280;59889;50.700;5.440;2023-05-27T01:17:10;101133.31;;;24.63;30.78
72024;BME280;59889;50.700;5.440;2023-05-27T01:19:36;101132.46;;;24.41;30.78
72024;BME280;59889;50.700;5.440;2023-05-27T01:22:00;101131.38;;;24.65;30.77
72024;BME280;59889;50.700;5.440;2023-05-27T01:24:24;101129.34;;;24.40;30.83
72024;BME280;59889;50.700;5.440;2023-05-27T01:26:49;101124.60;;;24.45;30.78
72024;BME280;59889;50.700;5.440;2023-05-27T01:29:14;101120.97;;;24.94;30.75
72024;BME280;59889;50.700;5.440;2023-05-27T01:31:44;101120.10;;;24.39;30.83
72024;BME280;59889;50.700;5.440;2023-05-27T01:34:07;101115.63;;;24.46;30.79
72024;BME280;59889;50.700;5.440;2023-05-27T01:36:35;101113.97;;;24.41;30.82
72024;BME280;59889;50.700;5.440;2023-05-27T01:38:56;101109.36;;;24.61;30.89
72024;BME280;59889;50.700;5.440;2023-05-27T01:41:19;101106.09;;;24.35;30.86
72024;BME280;59889;50.700;5.440;2023-05-27T01:43:45;101103.33;;;24.60;30.85
72024;BME280;59889;50.700;5.440;2023-05-27T01:46:09;101102.04;;;24.36;30.87
72024;BME280;59889;50.700;5.440;2023-05-27T01:48:34;101100.03;;;24.58;30.86
72024;BME280;59889;50.700;5.440;2023-05-27T01:50:59;101096.57;;;24.51;30.98
72024;BME280;59889;50.700;5.440;2023-05-27T01:53:24;101095.80;;;24.35;30.88
72024;BME280;59889;50.700;5.440;2023-05-27T01:55:49;101095.89;;;24.33;30.91
72024;BME280;59889;50.700;5.440;2023-05-27T01:58:14;101093.48;;;24.35;30.85
72024;BME280;59889;50.700;5.440;2023-05-27T02:00:39;101090.23;;;24.34;30.94
72024;BME280;59889;50.700;5.440;2023-05-27T02:03:04;101089.99;;;24.27;30.98
72024;BME280;59889;50.700;5.440;2023-05-27T02:05:29;101092.47;;;24.31;30.91
72024;BME280;59889;50.700;5.440;2023-05-27T02:07:54;101094.02;;;24.55;30.95
72024;BME280;59889;50.700;5.440;2023-05-27T02:10:19;101095.04;;;24.34;30.92
72024;BME280;59889;50.700;5.440;2023-05-27T02:12:44;101092.63;;;24.55;30.97
72024;BME280;59889;50.700;5.440;2023-05-27T02:15:10;101092.63;;;24.55;30.95
72024;BME280;59889;50.700;5.440;2023-05-27T02:17:34;101090.13;;;24.36;30.93
72024;BME280;59889;50.700;5.440;2023-05-27T02:19:59;101090.15;;;24.32;30.95
72024;BME280;59889;50.700;5.440;2023-05-27T02:22:24;101090.04;;;24.26;31.03
72024;BME280;59889;50.700;5.440;2023-05-27T02:24:49;101092.69;;;24.58;30.88
72024;BME280;59889;50.700;5.440;2023-05-27T02:27:14;101089.10;;;24.49;31.00
72024;BME280;59889;50.700;5.440;2023-05-27T02:29:39;101089.93;;;24.28;31.00
72024;BME280;59889;50.700;5.440;2023-05-27T02:32:05;101091.05;;;24.30;30.94
72024;BME280;59889;50.700;5.440;2023-05-27T02:34:29;101089.58;;;24.33;30.90
72024;BME280;59889;50.700;5.440;2023-05-27T02:36:54;101086.21;;;24.05;30.97
72024;BME280;59889;50.700;5.440;2023-05-27T02:39:20;101085.99;;;24.41;30.84
72024;BME280;59889;50.700;5.440;2023-05-27T02:41:44;101086.19;;;24.36;30.88
72024;BME280;59889;50.700;5.440;2023-05-27T02:44:09;101084.27;;;24.30;30.94
72024;BME280;59889;50.700;5.440;2023-05-27T02:46:35;101084.01;;;24.56;30.95
72024;BME280;59889;50.700;5.440;2023-05-27T02:49:00;101083.29;;;24.49;31.06
72024;BME280;59889;50.700;5.440;2023-05-27T02:51:25;101081.01;;;24.25;31.03
72024;BME280;59889;50.700;5.440;2023-05-27T02:53:50;101082.97;;;24.50;31.04
72024;BME280;59889;50.700;5.440;2023-05-27T02:56:15;101085.99;;;24.09;30.96
72024;BME280;59889;50.700;5.440;2023-05-27T02:58:40;101085.55;;;24.57;30.92
72024;BME280;59889;50.700;5.440;2023-05-27T03:01:05;101084.42;;;24.29;30.98
72024;BME280;59889;50.700;5.440;2023-05-27T03:03:30;101084.07;;;24.76;30.94
72024;BME280;59889;50.700;5.440;2023-05-27T03:05:55;101086.01;;;24.23;31.06
72024;BME280;59889;50.700;5.440;2023-05-27T03:08:20;101084.52;;;24.30;31.01
72024;BME280;59889;50.700;5.440;2023-05-27T03:10:45;101086.36;;;24.32;30.97
72024;BME280;59889;50.700;5.440;2023-05-27T03:13:10;101082.60;;;24.40;31.13
72024;BME280;59889;50.700;5.440;2023-05-27T03:15:35;101080.98;;;24.14;31.17
72024;BME280;59889;50.700;5.440;2023-05-27T03:18:00;101077.97;;;24.55;31.00
72024;BME280;59889;50.700;5.440;2023-05-27T03:20:25;101075.41;;;24.15;31.15
72024;BME280;59889;50.700;5.440;2023-05-27T03:22:50;101077.17;;;23.89;31.48
72024;BME280;59889;50.700;5.440;2023-05-27T03:25:15;101079.08;;;24.07;31.31
72024;BME280;59889;50.700;5.440;2023-05-27T03:27:40;101080.93;;;24.37;31.25
72024;BME280;59889;50.700;5.440;2023-05-27T03:30:06;101083.45;;;24.36;31.25
72024;BME280;59889;50.700;5.440;2023-05-27T03:32:30;101085.84;;;24.29;31.35
72024;BME280;59889;50.700;5.440;2023-05-27T03:34:55;101086.41;;;24.34;31.30
72024;BME280;59889;50.700;5.440;2023-05-27T03:37:20;101082.57;;;24.27;31.35
72024;BME280;59889;50.700;5.440;2023-05-27T03:39:45;101080.08;;;24.20;31.21
72024;BME280;59889;50.700;5.440;2023-05-27T03:42:11;101079.83;;;24.22;31.42
72024;BME280;59889;50.700;5.440;2023-05-27T03:44:35;101077.27;;;24.23;31.43
72024;BME280;59889;50.700;5.440;2023-05-27T03:47:02;101075.96;;;24.16;31.21
72024;BME280;59889;50.700;5.440;2023-05-27T03:49:25;101075.55;;;24.13;31.25
72024;BME280;59889;50.700;5.440;2023-05-27T03:51:50;101075.22;;;24.22;31.17
72024;BME280;59889;50.700;5.440;2023-05-27T03:54:15;101077.05;;;23.84;31.31
72024;BME280;59889;50.700;5.440;2023-05-27T03:56:40;101077.08;;;24.07;31.33
72024;BME280;59889;50.700;5.440;2023-05-27T03:59:05;101077.41;;;24.42;31.23
72024;BME280;59889;50.700;5.440;2023-05-27T04:01:30;101076.49;;;24.10;31.27
72024;BME280;59889;50.700;5.440;2023-05-27T04:03:55;101074.25;;;24.10;31.29
72024;BME280;59889;50.700;5.440;2023-05-27T04:06:20;101075.97;;;24.15;31.24
72024;BME280;59889;50.700;5.440;2023-05-27T04:08:45;101077.03;;;24.31;31.34
72024;BME280;59889;50.700;5.440;2023-05-27T04:11:12;101080.13;;;24.39;31.23
72024;BME280;59889;50.700;5.440;2023-05-27T04:13:35;101081.18;;;24.40;31.24
72024;BME280;59889;50.700;5.440;2023-05-27T04:16:00;101077.91;;;24.11;31.28
72024;BME280;59889;50.700;5.440;2023-05-27T04:18:25;101076.16;;;24.32;31.29
72024;BME280;59889;50.700;5.440;2023-05-27T04:20:50;101068.57;;;24.12;31.25
72024;BME280;59889;50.700;5.440;2023-05-27T04:23:16;101063.51;;;24.15;31.24
72024;BME280;59889;50.700;5.440;2023-05-27T04:25:41;101064.25;;;24.46;31.14
72024;BME280;59889;50.700;5.440;2023-05-27T04:28:06;101065.92;;;24.14;31.23
72024;BME280;59889;50.700;5.440;2023-05-27T04:30:31;101066.90;;;24.67;31.17
72024;BME280;59889;50.700;5.440;2023-05-27T04:32:55;101071.38;;;24.23;31.15
72024;BME280;59889;50.700;5.440;2023-05-27T04:35:20;101074.04;;;24.41;31.21
72024;BME280;59889;50.700;5.440;2023-05-27T04:37:45;101071.36;;;24.15;31.24
72024;BME280;59889;50.700;5.440;2023-05-27T04:40:11;101071.66;;;24.65;31.23
72024;BME280;59889;50.700;5.440;2023-05-27T04:42:36;101067.66;;;24.12;31.28
72024;BME280;59889;50.700;5.440;2023-05-27T04:45:01;101066.44;;;24.24;31.12
72024;BME280;59889;50.700;5.440;2023-05-27T04:47:26;101069.66;;;24.21;31.16
72024;BME280;59889;50.700;5.440;2023-05-27T04:49:51;101070.26;;;24.20;31.20
72024;BME280;59889;50.700;5.440;2023-05-27T04:52:16;101070.59;;;24.19;31.20
72024;BME280;59889;50.700;5.440;2023-05-27T04:54:41;101073.76;;;24.39;31.24
72024;BME280;59889;50.700;5.440;2023-05-27T04:57:06;101071.28;;;24.39;31.26
72024;BME280;59889;50.700;5.440;2023-05-27T04:59:31;101072.50;;;24.10;31.29
72024;BME280;59889;50.700;5.440;2023-05-27T05:01:56;101070.79;;;24.44;31.18
72024;BME280;59889;50.700;5.440;2023-05-27T05:04:21;101069.50;;;24.18;31.21
72024;BME280;59889;50.700;5.440;2023-05-27T05:06:46;101066.32;;;24.46;31.16
72024;BME280;59889;50.700;5.440;2023-05-27T05:09:11;101065.65;;;23.86;31.90
72024;BME280;59889;50.700;5.440;2023-05-27T05:11:36;101064.66;;;23.99;31.77
72024;BME280;59889;50.700;5.440;2023-05-27T05:14:01;101063.72;;;23.99;31.80
72024;BME280;59889;50.700;5.440;2023-05-27T05:16:26;101065.36;;;23.96;31.75
72024;BME280;59889;50.700;5.440;2023-05-27T05:18:51;101068.68;;;23.99;31.58
72024;BME280;59889;50.700;5.440;2023-05-27T05:21:16;101068.99;;;23.65;31.57
72024;BME280;59889;50.700;5.440;2023-05-27T05:23:41;101068.91;;;23.79;31.25
72024;BME280;59889;50.700;5.440;2023-05-27T05:26:06;101068.29;;;24.16;31.32
72024;BME280;59889;50.700;5.440;2023-05-27T05:28:31;101067.69;;;23.69;31.27
72024;BME280;59889;50.700;5.440;2023-05-27T05:30:56;101066.41;;;24.21;31.09
72024;BME280;59889;50.700;5.440;2023-05-27T05:33:21;101068.56;;;24.01;30.96
72024;BME280;59889;50.700;5.440;2023-05-27T05:35:46;101067.04;;;23.97;31.03
72024;BME280;59889;50.700;5.440;2023-05-27T05:38:11;101066.78;;;24.17;30.88
72024;BME280;59889;50.700;5.440;2023-05-27T05:40:36;101067.70;;;23.61;30.94
72024;BME280;59889;50.700;5.440;2023-05-27T05:43:02;101064.37;;;23.58;30.88
72024;BME280;59889;50.700;5.440;2023-05-27T05:45:27;101062.39;;;23.55;30.90
72024;BME280;59889;50.700;5.440;2023-05-27T05:47:52;101060.81;;;24.09;30.53
72024;BME280;59889;50.700;5.440;2023-05-27T05:50:17;101060.50;;;23.64;30.60
72024;BME280;59889;50.700;5.440;2023-05-27T05:52:42;101060.95;;;23.79;30.46
72024;BME280;59889;50.700;5.440;2023-05-27T05:55:07;101060.04;;;23.86;30.60
72024;BME280;59889;50.700;5.440;2023-05-27T05:57:32;101061.99;;;23.95;30.34
72024;BME280;59889;50.700;5.440;2023-05-27T05:59:57;101060.42;;;23.64;30.71
72024;BME280;59889;50.700;5.440;2023-05-27T06:02:22;101060.49;;;23.75;30.59
72024;BME280;59889;50.700;5.440;2023-05-27T06:04:47;101055.56;;;23.48;30.51
72024;BME280;59889;50.700;5.440;2023-05-27T06:07:12;101057.91;;;23.73;30.60
72024;BME280;59889;50.700;5.440;2023-05-27T06:09:37;101059.28;;;24.06;30.24
72024;BME280;59889;50.700;5.440;2023-05-27T06:12:03;101059.78;;;23.95;30.17
72024;BME280;59889;50.700;5.440;2023-05-27T06:14:27;101063.41;;;24.26;30.11
72024;BME280;59889;50.700;5.440;2023-05-27T06:16:53;101061.27;;;23.48;30.30
72024;BME280;59889;50.700;5.440;2023-05-27T06:19:18;101063.73;;;23.74;29.95
72024;BME280;59889;50.700;5.440;2023-05-27T06:21:43;101063.64;;;23.88;30.10
72024;BME280;59889;50.700;5.440;2023-05-27T06:24:08;101064.12;;;23.86;30.03
72024;BME280;59889;50.700;5.440;2023-05-27T06:26:33;101061.94;;;23.53;30.09
72024;BME280;59889;50.700;5.440;2023-05-27T06:28:58;101057.10;;;23.99;29.91
72024;BME280;59889;50.700;5.440;2023-05-27T06:31:23;101056.61;;;23.96;29.88
72024;BME280;59889;50.700;5.440;2023-05-27T06:33:48;101056.51;;;23.92;29.89
72024;BME280;59889;50.700;5.440;2023-05-27T06:36:14;101053.50;;;23.91;29.96
72024;BME280;59889;50.700;5.440;2023-05-27T06:38:39;101050.51;;;23.95;29.87
72024;BME280;59889;50.700;5.440;2023-05-27T06:41:05;101048.77;;;23.81;29.91
72024;BME280;59889;50.700;5.440;2023-05-27T06:43:30;101048.71;;;24.02;29.64
72024;BME280;59889;50.700;5.440;2023-05-27T06:45:55;101046.36;;;24.02;29.65
72024;BME280;59889;50.700;5.440;2023-05-27T06:48:20;101047.83;;;24.01;29.66
72024;BME280;59889;50.700;5.440;2023-05-27T06:50:45;101047.00;;;24.25;29.69
72024;BME280;59889;50.700;5.440;2023-05-27T06:53:11;101045.67;;;24.00;29.71
72024;BME280;59889;50.700;5.440;2023-05-27T06:55:36;101043.29;;;24.03;29.63
72024;BME280;59889;50.700;5.440;2023-05-27T06:58:01;101044.51;;;24.01;29.65
72024;BME280;59889;50.700;5.440;2023-05-27T07:00:26;101042.25;;;23.77;29.63
72024;BME280;59889;50.700;5.440;2023-05-27T07:02:51;101039.51;;;24.04;29.64
72024;BME280;59889;50.700;5.440;2023-05-27T07:05:16;101042.25;;;23.54;29.74
72024;BME280;59889;50.700;5.440;2023-05-27T07:07:41;101045.60;;;23.94;29.27
72024;BME280;59889;50.700;5.440;2023-05-27T07:10:07;101043.64;;;23.90;29.03
72024;BME280;59889;50.700;5.440;2023-05-27T07:12:31;101043.84;;;24.11;28.78
72024;BME280;59889;50.700;5.440;2023-05-27T07:14:57;101039.08;;;23.85;28.64
72024;BME280;59889;50.700;5.440;2023-05-27T07:17:22;101032.13;;;23.83;28.62
72024;BME280;59889;50.700;5.440;2023-05-27T07:19:47;101029.04;;;23.92;28.44
72024;BME280;59889;50.700;5.440;2023-05-27T07:22:12;101025.95;;;23.99;28.34
72024;BME280;59889;50.700;5.440;2023-05-27T07:24:37;101024.56;;;24.14;28.35
72024;BME280;59889;50.700;5.440;2023-05-27T07:27:03;101023.00;;;24.12;28.24
72024;BME280;59889;50.700;5.440;2023-05-27T07:29:28;101018.84;;;23.83;28.20
72024;BME280;59889;50.700;5.440;2023-05-27T07:31:53;101018.61;;;24.10;28.22
72024;BME280;59889;50.700;5.440;2023-05-27T07:34:18;101019.44;;;23.78;28.25
72024;BME280;59889;50.700;5.440;2023-05-27T07:36:43;101020.71;;;23.84;28.36
72024;BME280;59889;50.700;5.440;2023-05-27T07:39:08;101017.68;;;23.91;28.28
72024;BME280;59889;50.700;5.440;2023-05-27T07:41:34;101014.02;;;24.31;28.54
72024;BME280;59889;50.700;5.440;2023-05-27T07:43:59;101013.82;;;24.44;28.56
72024;BME280;59889;50.700;5.440;2023-05-27T07:46:24;101007.56;;;24.08;28.74
72024;BME280;59889;50.700;5.440;2023-05-27T07:48:49;101005.12;;;24.14;29.06
72024;BME280;59889;50.700;5.440;2023-05-27T07:51:14;100995.86;;;24.30;29.01
72024;BME280;59889;50.700;5.440;2023-05-27T07:53:39;100995.06;;;24.19;29.05
72024;BME280;59889;50.700;5.440;2023-05-27T07:56:05;100989.10;;;23.98;29.10
72024;BME280;59889;50.700;5.440;2023-05-27T07:58:29;100986.29;;;24.16;29.23
72024;BME280;59889;50.700;5.440;2023-05-27T08:00:54;100981.99;;;24.14;29.30
72024;BME280;59889;50.700;5.440;2023-05-27T08:03:19;100982.88;;;23.76;29.47
72024;BME280;59889;50.700;5.440;2023-05-27T08:05:45;100985.29;;;24.15;29.41
72024;BME280;59889;50.700;5.440;2023-05-27T08:08:10;100982.04;;;24.17;29.14
72024;BME280;59889;50.700;5.440;2023-05-27T08:10:35;100983.29;;;23.98;29.36
72024;BME280;59889;50.700;5.440;2023-05-27T08:13:00;100981.64;;;24.16;29.26
72024;BME280;59889;50.700;5.440;2023-05-27T08:15:25;100975.65;;;24.58;29.35
72024;BME280;59889;50.700;5.440;2023-05-27T08:17:50;100974.46;;;24.33;29.39
72024;BME280;59889;50.700;5.440;2023-05-27T08:20:15;100976.19;;;24.40;29.40
72024;BME280;59889;50.700;5.440;2023-05-27T08:22:41;100972.20;;;24.25;29.57
72024;BME280;59889;50.700;5.440;2023-05-27T08:25:06;100971.69;;;23.96;29.68
72024;BME280;59889;50.700;5.440;2023-05-27T08:27:42;100972.22;;;24.25;29.67
72024;BME280;59889;50.700;5.440;2023-05-27T08:29:56;100972.57;;;24.32;29.61
72024;BME280;59889;50.700;5.440;2023-05-27T08:32:21;100972.34;;;23.97;29.76
72024;BME280;59889;50.700;5.440;2023-05-27T08:34:46;100971.63;;;24.20;29.80
72024;BME280;59889;50.700;5.440;2023-05-27T08:37:11;100968.42;;;24.56;29.74
72024;BME280;59889;50.700;5.440;2023-05-27T08:39:36;100963.99;;;23.88;29.98
72024;BME280;59889;50.700;5.440;2023-05-27T08:42:02;100960.75;;;24.26;29.90
72024;BME280;59889;50.700;5.440;2023-05-27T08:44:26;100955.92;;;23.99;29.93
72024;BME280;59889;50.700;5.440;2023-05-27T08:46:51;100953.41;;;24.05;30.19
72024;BME280;59889;50.700;5.440;2023-05-27T08:49:16;100952.38;;;23.98;29.98
72024;BME280;59889;50.700;5.440;2023-05-27T08:51:41;100945.22;;;24.12;30.38
72024;BME280;59889;50.700;5.440;2023-05-27T08:54:07;100944.23;;;24.28;29.99
72024;BME280;59889;50.700;5.440;2023-05-27T08:56:33;100944.57;;;23.99;30.05
72024;BME280;59889;50.700;5.440;2023-05-27T08:58:57;100941.81;;;24.19;30.12
72024;BME280;59889;50.700;5.440;2023-05-27T09:01:22;100939.13;;;23.96;30.11
72024;BME280;59889;50.700;5.440;2023-05-27T09:03:47;100933.31;;;23.94;30.16
72024;BME280;59889;50.700;5.440;2023-05-27T09:06:12;100929.85;;;23.91;30.20
72024;BME280;59889;50.700;5.440;2023-05-27T09:08:37;100926.64;;;23.68;30.25
72024;BME280;59889;50.700;5.440;2023-05-27T09:11:03;100923.26;;;24.19;29.94
72024;BME280;59889;50.700;5.440;2023-05-27T09:13:30;100922.39;;;24.31;30.10
72024;BME280;59889;50.700;5.440;2023-05-27T09:15:59;100913.59;;;24.26;30.19
72024;BME280;59889;50.700;5.440;2023-05-27T09:18:25;100910.21;;;24.26;30.21
72024;BME280;59889;50.700;5.440;2023-05-27T09:20:44;100903.40;;;24.17;30.07
72024;BME280;59889;50.700;5.440;2023-05-27T09:23:10;100902.39;;;24.18;30.06
72024;BME280;59889;50.700;5.440;2023-05-27T09:25:34;100901.11;;;24.44;30.07
72024;BME280;59889;50.700;5.440;2023-05-27T09:27:59;100900.75;;;24.24;30.00
72024;BME280;59889;50.700;5.440;2023-05-27T09:30:24;100897.44;;;24.49;30.03
72024;BME280;59889;50.700;5.440;2023-05-27T09:32:49;100893.12;;;24.22;30.05
72024;BME280;59889;50.700;5.440;2023-05-27T09:35:15;100894.51;;;24.20;30.09
72024;BME280;59889;50.700;5.440;2023-05-27T09:37:39;100890.46;;;24.03;30.34
72024;BME280;59889;50.700;5.440;2023-05-27T09:40:07;100886.81;;;24.71;30.14
72024;BME280;59889;50.700;5.440;2023-05-27T09:42:39;100886.51;;;24.21;30.15
72024;BME280;59889;50.700;5.440;2023-05-27T09:44:54;100883.92;;;24.29;30.07
72024;BME280;59889;50.700;5.440;2023-05-27T09:47:20;100883.78;;;24.30;30.10
72024;BME280;59889;50.700;5.440;2023-05-27T09:49:45;100880.59;;;24.53;30.11
72024;BME280;59889;50.700;5.440;2023-05-27T09:52:10;100875.80;;;24.25;30.13
72024;BME280;59889;50.700;5.440;2023-05-27T09:54:34;100871.44;;;24.38;30.05
72024;BME280;59889;50.700;5.440;2023-05-27T09:57:00;100867.04;;;24.47;29.93
72024;BME280;59889;50.700;5.440;2023-05-27T09:59:25;100867.91;;;24.66;30.00
72024;BME280;59889;50.700;5.440;2023-05-27T10:01:50;100861.63;;;24.67;30.00
72024;BME280;59889;50.700;5.440;2023-05-27T10:04:15;100859.57;;;24.47;29.97
72024;BME280;59889;50.700;5.440;2023-05-27T10:06:40;100857.09;;;24.48;29.96
72024;BME280;59889;50.700;5.440;2023-05-27T10:09:06;100853.41;;;24.65;30.04
72024;BME280;59889;50.700;5.440;2023-05-27T10:11:31;100850.93;;;24.71;29.99
72024;BME280;59889;50.700;5.440;2023-05-27T10:13:55;100844.86;;;24.86;30.12
72024;BME280;59889;50.700;5.440;2023-05-27T10:16:21;100844.85;;;24.47;30.02
72024;BME280;59889;50.700;5.440;2023-05-27T10:18:46;100842.82;;;24.41;30.13
72024;BME280;59889;50.700;5.440;2023-05-27T10:21:17;100834.17;;;24.72;30.08
72024;BME280;59889;50.700;5.440;2023-05-27T10:23:36;100835.68;;;24.71;30.12
72024;BME280;59889;50.700;5.440;2023-05-27T10:26:05;100838.64;;;24.67;30.18
72024;BME280;59889;50.700;5.440;2023-05-27T10:28:28;100832.03;;;24.47;30.14
72024;BME280;59889;50.700;5.440;2023-05-27T10:30:52;100828.08;;;24.39;30.25
72024;BME280;59889;50.700;5.440;2023-05-27T10:33:16;100826.72;;;24.47;30.15
72024;BME280;59889;50.700;5.440;2023-05-27T10:35:42;100828.30;;;24.60;30.27
72024;BME280;59889;50.700;5.440;2023-05-27T10:38:15;100825.00;;;24.47;29.92
72024;BME280;59889;50.700;5.440;2023-05-27T10:40:31;100828.38;;;24.26;29.86
72024;BME280;59889;50.700;5.440;2023-05-27T10:42:59;100825.20;;;24.31;29.85
72024;BME280;59889;50.700;5.440;2023-05-27T10:45:31;100822.43;;;24.59;29.84
72024;BME280;59889;50.700;5.440;2023-05-27T10:47:46;100818.93;;;24.51;29.79
72024;BME280;59889;50.700;5.440;2023-05-27T10:50:12;100821.31;;;24.25;30.07
72024;BME280;59889;50.700;5.440;2023-05-27T10:52:37;100818.63;;;24.76;29.77
72024;BME280;59889;50.700;5.440;2023-05-27T10:55:01;100810.94;;;24.48;29.78
72024;BME280;59889;50.700;5.440;2023-05-27T10:57:30;100810.60;;;24.44;29.75
72024;BME280;59889;50.700;5.440;2023-05-27T10:59:53;100799.40;;;24.79;29.64
72024;BME280;59889;50.700;5.440;2023-05-27T11:02:16;100804.59;;;24.56;29.64
72024;BME280;59889;50.700;5.440;2023-05-27T11:04:41;100802.30;;;24.41;29.79
72024;BME280;59889;50.700;5.440;2023-05-27T11:07:06;100797.61;;;24.49;29.68
72024;BME280;59889;50.700;5.440;2023-05-27T11:09:43;100797.35;;;24.37;29.73
72024;BME280;59889;50.700;5.440;2023-05-27T11:12:00;100791.75;;;24.79;29.50
72024;BME280;59889;50.700;5.440;2023-05-27T11:14:22;100790.89;;;24.58;29.34
72024;BME280;59889;50.700;5.440;2023-05-27T11:16:47;100790.30;;;24.60;29.34
72024;BME280;59889;50.700;5.440;2023-05-27T11:19:11;100787.60;;;24.84;29.36
72024;BME280;59889;50.700;5.440;2023-05-27T11:21:44;100784.45;;;24.82;29.20
72024;BME280;59889;50.700;5.440;2023-05-27T11:24:01;100784.91;;;24.75;29.32
72024;BME280;59889;50.700;5.440;2023-05-27T11:26:26;100780.10;;;24.34;29.40
72024;BME280;59889;50.700;5.440;2023-05-27T11:28:53;100783.28;;;24.49;29.37
72024;BME280;59889;50.700;5.440;2023-05-27T11:31:16;100777.63;;;24.23;29.47
72024;BME280;59889;50.700;5.440;2023-05-27T11:33:43;100777.59;;;24.59;29.17
72024;BME280;59889;50.700;5.440;2023-05-27T11:36:08;100774.44;;;24.68;28.99
72024;BME280;59889;50.700;5.440;2023-05-27T11:38:46;100769.66;;;24.67;29.07
72024;BME280;59889;50.700;5.440;2023-05-27T11:41:06;100765.27;;;24.70;28.97
72024;BME280;59889;50.700;5.440;2023-05-27T11:43:22;100760.24;;;24.64;29.01
72024;BME280;59889;50.700;5.440;2023-05-27T11:45:47;100755.66;;;24.70;28.90
72024;BME280;59889;50.700;5.440;2023-05-27T11:48:13;100751.97;;;24.63;28.95
72024;BME280;59889;50.700;5.440;2023-05-27T11:50:37;100748.42;;;24.74;28.83
72024;BME280;59889;50.700;5.440;2023-05-27T11:53:03;100752.09;;;24.61;28.92
72024;BME280;59889;50.700;5.440;2023-05-27T11:55:29;100744.59;;;24.64;28.92
72024;BME280;59889;50.700;5.440;2023-05-27T11:57:52;100741.34;;;24.92;28.88
72024;BME280;59889;50.700;5.440;2023-05-27T12:00:17;100733.79;;;24.53;28.81
72024;BME280;59889;50.700;5.440;2023-05-27T12:02:43;100730.35;;;24.80;28.77
72024;BME280;59889;50.700;5.440;2023-05-27T12:05:08;100729.51;;;24.73;28.85
72024;BME280;59889;50.700;5.440;2023-05-27T12:07:33;100727.51;;;24.99;28.83
72024;BME280;59889;50.700;5.440;2023-05-27T12:09:58;100726.38;;;24.66;28.93
72024;BME280;59889;50.700;5.440;2023-05-27T12:12:23;100724.53;;;25.17;28.78
72024;BME280;59889;50.700;5.440;2023-05-27T12:14:48;100720.32;;;24.98;28.84
72024;BME280;59889;50.700;5.440;2023-05-27T12:17:13;100719.22;;;24.79;28.80
72024;BME280;59889;50.700;5.440;2023-05-27T12:19:38;100711.30;;;24.71;28.78
72024;BME280;59889;50.700;5.440;2023-05-27T12:22:03;100708.23;;;24.82;28.68
72024;BME280;59889;50.700;5.440;2023-05-27T12:24:28;100706.92;;;24.85;28.70
72024;BME280;59889;50.700;5.440;2023-05-27T12:26:53;100702.97;;;24.86;28.70
72024;BME280;59889;50.700;5.440;2023-05-27T12:29:18;100700.38;;;24.82;28.66
72024;BME280;59889;50.700;5.440;2023-05-27T12:31:43;100698.02;;;25.09;28.67
72024;BME280;59889;50.700;5.440;2023-05-27T12:34:08;100695.35;;;24.40;28.80
72024;BME280;59889;50.700;5.440;2023-05-27T12:36:33;100693.06;;;24.83;28.68
72024;BME280;59889;50.700;5.440;2023-05-27T12:38:58;100690.56;;;24.89;28.66